createdAt,value
2022-10-13T00:00:42.551Z,13.10
2022-10-13T00:02:44.166Z,15.52
2022-10-13T00:04:45.753Z,17.33
2022-10-13T00:06:47.243Z,14.95
2022-10-13T00:08:49.023Z,21.92
2022-10-13T00:10:51.106Z,19.05
2022-10-13T00:12:58.302Z,16.55
2022-10-13T00:14:59.940Z,18.02
2022-10-13T00:17:01.503Z,20.10
2022-10-13T00:19:03.211Z,20.88
2022-10-13T00:21:14.041Z,19.83
2022-10-13T00:23:17.092Z,17.50
2022-10-13T00:25:18.713Z,17.13
2022-10-13T00:27:21.695Z,19.95
2022-10-13T00:29:23.730Z,18.67
2022-10-13T00:31:27.965Z,19.08
2022-10-13T00:33:29.647Z,25.52
2022-10-13T00:35:31.280Z,23.85
2022-10-13T00:37:32.725Z,23.38
2022-10-13T00:39:34.568Z,22.83
2022-10-13T00:41:36.594Z,22.33
2022-10-13T00:43:53.738Z,19.92
2022-10-13T00:45:55.440Z,21.02
2022-10-13T00:48:00.867Z,21.98
2022-10-13T00:50:03.082Z,21.73
2022-10-13T00:52:04.627Z,20.67
2022-10-13T00:54:08.971Z,22.08
2022-10-13T00:56:13.282Z,18.60
2022-10-13T00:58:19.367Z,17.00
2022-10-13T01:00:23.327Z,19.52
2022-10-13T01:02:31.546Z,15.13
2022-10-13T01:04:45.395Z,16.48
2022-10-13T01:06:46.909Z,14.60
2022-10-13T01:08:49.454Z,15.68
2022-10-13T01:11:09.593Z,15.68
2022-10-13T01:13:26.444Z,15.55
2022-10-13T01:15:35.643Z,17.00
2022-10-13T01:17:42.045Z,14.60
2022-10-13T01:19:52.579Z,14.13
2022-10-13T01:22:27.208Z,16.00
2022-10-13T01:24:43.033Z,13.30
2022-10-13T01:27:03.761Z,14.50
2022-10-13T01:29:24.590Z,16.20
2022-10-13T01:31:41.908Z,13.25
2022-10-13T01:33:51.247Z,13.25
2022-10-13T01:36:15.124Z,13.23
2022-10-13T01:38:44.614Z,13.88
2022-10-13T01:41:00.559Z,12.48
2022-10-13T01:43:07.810Z,12.10
2022-10-13T01:45:12.494Z,13.60
2022-10-13T01:47:17.271Z,13.27
2022-10-13T01:49:24.347Z,11.98
2022-10-13T01:51:29.277Z,11.77
2022-10-13T01:53:31.946Z,13.15
2022-10-13T01:55:33.476Z,14.20
2022-10-13T01:57:43.999Z,14.77
2022-10-13T01:59:45.995Z,12.40
2022-10-13T02:01:52.117Z,13.00
2022-10-13T02:04:14.087Z,13.18
2022-10-13T02:06:24.211Z,13.73
2022-10-13T02:08:37.624Z,13.00
2022-10-13T02:10:50.665Z,13.38
2022-10-13T02:12:57.858Z,12.90
2022-10-13T02:15:01.042Z,11.98
2022-10-13T02:17:04.841Z,16.10
2022-10-13T02:19:11.574Z,16.58
2022-10-13T02:21:13.270Z,13.65
2022-10-13T02:23:17.370Z,14.73
2022-10-13T02:25:19.142Z,15.18
2022-10-13T02:27:22.358Z,13.50
2022-10-13T02:29:24.751Z,15.77
2022-10-13T02:31:26.479Z,15.10
2022-10-13T02:33:28.169Z,16.48
2022-10-13T02:35:31.095Z,16.05
2022-10-13T02:37:36.778Z,16.48
2022-10-13T02:39:39.172Z,16.42
2022-10-13T02:41:46.350Z,16.88
2022-10-13T02:43:47.991Z,16.17
2022-10-13T02:45:49.542Z,13.90
2022-10-13T02:47:51.295Z,15.48
2022-10-13T02:49:52.749Z,14.65
2022-10-13T02:51:54.408Z,13.25
2022-10-13T02:53:56.117Z,13.25
2022-10-13T02:55:57.692Z,12.80
2022-10-13T02:57:59.956Z,12.85
2022-10-13T03:00:01.721Z,14.38
2022-10-13T03:02:03.232Z,12.80
2022-10-13T03:04:05.010Z,13.63
2022-10-13T03:06:07.676Z,13.50
2022-10-13T03:08:09.313Z,12.73
2022-10-13T03:10:10.833Z,12.98
2022-10-13T03:12:12.509Z,10.38
2022-10-13T03:14:14.162Z,10.95
2022-10-13T03:16:16.146Z,12.05
2022-10-13T03:18:17.908Z,11.90
2022-10-13T03:20:19.613Z,11.13
2022-10-13T03:22:21.654Z,11.82
2022-10-13T03:24:24.449Z,14.20
2022-10-13T03:26:26.400Z,10.45
2022-10-13T03:28:28.542Z,13.10
2022-10-13T03:30:30.369Z,14.52
2022-10-13T03:32:32.091Z,14.98
2022-10-13T03:34:33.905Z,16.05
2022-10-13T03:36:35.638Z,14.50
2022-10-13T03:38:37.530Z,12.32
2022-10-13T03:40:39.189Z,13.25
2022-10-13T03:42:40.995Z,14.02
2022-10-13T03:44:42.795Z,13.48
2022-10-13T03:46:44.933Z,14.23
2022-10-13T03:48:47.660Z,14.02
2022-10-13T03:50:49.220Z,16.08
2022-10-13T03:52:50.674Z,16.45
2022-10-13T03:54:52.625Z,17.35
2022-10-13T03:56:54.275Z,16.50
2022-10-13T03:58:58.284Z,16.42
2022-10-13T04:01:05.372Z,18.77
2022-10-13T04:03:06.942Z,19.10
2022-10-13T04:05:09.324Z,18.10
2022-10-13T04:07:11.189Z,18.48
2022-10-13T04:09:13.144Z,21.73
2022-10-13T04:11:16.236Z,22.52
2022-10-13T04:13:19.152Z,22.15
2022-10-13T04:15:23.127Z,20.55
2022-10-13T04:17:24.712Z,20.45
2022-10-13T04:19:26.344Z,19.95
2022-10-13T04:21:30.542Z,22.48
2022-10-13T04:23:32.155Z,18.65
2022-10-13T04:25:38.338Z,21.58
2022-10-13T04:27:40.067Z,18.13
2022-10-13T04:29:41.821Z,22.20
2022-10-13T04:31:44.025Z,19.25
2022-10-13T04:33:45.778Z,18.30
2022-10-13T04:35:47.483Z,21.00
2022-10-13T04:37:50.350Z,18.15
2022-10-13T04:39:51.847Z,21.85
2022-10-13T04:41:53.535Z,18.45
2022-10-13T04:43:55.329Z,21.98
2022-10-13T04:46:18.422Z,19.75
2022-10-13T04:48:19.922Z,18.75
2022-10-13T04:50:21.480Z,20.70
2022-10-13T04:52:34.562Z,20.27
2022-10-13T04:54:39.122Z,22.17
2022-10-13T04:56:40.691Z,19.98
2022-10-13T04:58:44.766Z,19.35
2022-10-13T05:00:47.334Z,22.67
2022-10-13T05:02:54.932Z,21.63
2022-10-13T05:04:56.563Z,20.15
2022-10-13T05:07:18.078Z,20.63
2022-10-13T05:09:22.759Z,22.50
2022-10-13T05:11:26.851Z,20.67
2022-10-13T05:13:30.366Z,22.35
2022-10-13T05:15:32.008Z,20.50
2022-10-13T05:17:35.441Z,20.60
2022-10-13T05:19:42.573Z,22.42
2022-10-13T05:21:45.435Z,21.20
2022-10-13T05:23:47.389Z,19.52
2022-10-13T05:25:49.068Z,17.70
2022-10-13T05:27:53.303Z,19.20
2022-10-13T05:29:54.778Z,18.88
2022-10-13T05:31:56.408Z,18.38
2022-10-13T05:33:58.249Z,18.40
2022-10-13T05:36:11.789Z,17.88
2022-10-13T05:38:13.408Z,18.42
2022-10-13T05:40:15.472Z,24.48
2022-10-13T05:42:17.092Z,19.42
2022-10-13T05:44:19.314Z,18.23
2022-10-13T05:46:30.173Z,20.35
2022-10-13T05:48:31.926Z,21.55
2022-10-13T05:50:34.539Z,19.20
2022-10-13T05:52:40.744Z,18.95
2022-10-13T05:54:48.308Z,19.42
2022-10-13T05:57:08.812Z,18.10
2022-10-13T05:59:13.956Z,22.13
2022-10-13T06:01:19.926Z,19.92
2022-10-13T06:03:23.298Z,19.17
2022-10-13T06:05:26.383Z,17.88
2022-10-13T06:07:31.909Z,19.17
2022-10-13T06:09:37.862Z,21.85
2022-10-13T06:11:39.859Z,20.33
2022-10-13T06:13:41.484Z,18.35
2022-10-13T06:15:43.114Z,19.80
2022-10-13T06:17:55.341Z,21.13
2022-10-13T06:19:57.051Z,18.95
2022-10-13T06:22:03.281Z,19.58
2022-10-13T06:24:05.598Z,19.60
2022-10-13T06:26:07.819Z,17.27
2022-10-13T06:28:13.067Z,16.92
2022-10-13T06:30:14.712Z,18.33
2022-10-13T06:32:16.309Z,17.05
2022-10-13T06:34:18.103Z,18.75
2022-10-13T06:36:19.718Z,18.05
2022-10-13T06:38:23.388Z,19.75
2022-10-13T06:40:26.162Z,18.08
2022-10-13T06:42:31.720Z,19.13
2022-10-13T06:44:44.625Z,16.27
2022-10-13T06:46:46.478Z,18.63
2022-10-13T06:48:52.223Z,17.50
2022-10-13T06:50:55.206Z,15.95
2022-10-13T06:52:56.862Z,16.25
2022-10-13T06:54:58.540Z,15.48
2022-10-13T06:57:00.257Z,16.00
2022-10-13T06:59:01.748Z,16.42
2022-10-13T07:01:04.541Z,17.17
2022-10-13T07:03:07.087Z,14.68
2022-10-13T07:05:08.983Z,16.55
2022-10-13T07:07:11.075Z,15.50
2022-10-13T07:09:12.524Z,15.65
2022-10-13T07:11:16.158Z,16.80
2022-10-13T07:13:36.348Z,15.45
2022-10-13T07:15:40.376Z,15.73
2022-10-13T07:17:42.343Z,15.00
2022-10-13T07:19:43.983Z,14.30
2022-10-13T07:21:45.745Z,13.48
2022-10-13T07:23:47.414Z,14.63
2022-10-13T07:25:49.051Z,14.35
2022-10-13T07:27:50.628Z,14.05
2022-10-13T07:29:52.339Z,15.88
2022-10-13T07:31:54.300Z,12.57
2022-10-13T07:33:58.240Z,12.88
2022-10-13T07:36:03.512Z,14.50
2022-10-13T07:38:05.451Z,13.77
2022-10-13T07:40:08.095Z,13.85
2022-10-13T07:42:09.716Z,14.10
2022-10-13T07:44:11.270Z,16.52
2022-10-13T07:46:15.596Z,12.80
2022-10-13T07:48:17.130Z,13.73
2022-10-13T07:50:21.728Z,13.05
2022-10-13T07:52:23.473Z,11.68
2022-10-13T07:54:27.407Z,13.38
2022-10-13T07:56:29.342Z,13.23
2022-10-13T07:58:30.904Z,13.27
2022-10-13T08:00:32.494Z,12.05
2022-10-13T08:02:34.885Z,12.20
2022-10-13T08:04:37.164Z,11.60
2022-10-13T08:06:42.085Z,15.02
2022-10-13T08:08:43.874Z,12.38
2022-10-13T08:10:47.639Z,12.20
2022-10-13T08:12:49.189Z,11.95
2022-10-13T08:14:51.227Z,12.05
2022-10-13T08:16:53.741Z,10.85
2022-10-13T08:18:57.498Z,11.30
2022-10-13T08:21:33.132Z,11.65
2022-10-13T08:23:27.493Z,11.10
2022-10-13T08:25:29.124Z,12.65
2022-10-13T08:27:49.561Z,11.68
2022-10-13T08:29:54.626Z,11.75
2022-10-13T08:31:56.645Z,12.60
2022-10-13T08:33:58.299Z,10.77
2022-10-13T08:35:59.891Z,12.57
2022-10-13T08:38:01.624Z,16.27
2022-10-13T08:40:03.688Z,11.82
2022-10-13T08:42:34.462Z,12.73
2022-10-13T08:47:32.455Z,13.05
2022-10-13T08:49:34.068Z,15.23
2022-10-13T08:51:36.614Z,12.05
2022-10-13T08:53:41.368Z,15.23
2022-10-13T08:55:45.675Z,15.02
2022-10-13T08:57:47.441Z,16.60
2022-10-13T08:59:49.395Z,17.83
2022-10-13T09:01:59.516Z,15.35
2022-10-13T09:04:22.718Z,14.65
2022-10-13T09:06:33.906Z,14.70
2022-10-13T09:08:44.159Z,16.73
2022-10-13T09:10:48.475Z,15.88
2022-10-13T09:12:53.618Z,15.98
2022-10-13T09:15:02.979Z,17.13
2022-10-13T09:17:26.355Z,18.50
2022-10-13T09:19:36.166Z,17.65
2022-10-13T09:21:39.248Z,16.35
2022-10-13T09:23:42.010Z,18.05
2022-10-13T09:25:49.931Z,17.00
2022-10-13T09:28:01.079Z,17.83
2022-10-13T09:30:23.270Z,19.55
2022-10-13T09:32:35.652Z,21.05
2022-10-13T09:34:37.215Z,17.35
2022-10-13T09:36:56.011Z,14.88
2022-10-13T09:39:16.302Z,15.38
2022-10-13T09:41:22.097Z,19.30
2022-10-13T09:43:45.495Z,18.35
2022-10-13T09:45:56.933Z,18.60
2022-10-13T09:48:03.212Z,16.10
2022-10-13T09:50:23.363Z,18.15
2022-10-13T09:52:25.429Z,19.40
2022-10-13T09:54:51.413Z,16.98
2022-10-13T09:57:02.933Z,16.55
2022-10-13T09:59:21.520Z,20.70
2022-10-13T10:01:28.329Z,15.63
2022-10-13T10:03:34.589Z,18.38
2022-10-13T10:05:53.846Z,17.33
2022-10-13T10:08:02.985Z,16.30
2022-10-13T10:10:18.752Z,15.15
2022-10-13T10:12:27.659Z,16.65
2022-10-13T10:14:36.260Z,21.08
2022-10-13T10:16:53.389Z,17.55
2022-10-13T10:19:08.115Z,20.85
2022-10-13T10:21:31.620Z,20.23
2022-10-13T10:23:46.485Z,19.27
2022-10-13T10:26:01.488Z,17.73
2022-10-13T10:28:34.994Z,19.92
2022-10-13T10:30:57.654Z,20.05
2022-10-13T10:33:39.485Z,16.52
2022-10-13T10:35:49.704Z,17.80
2022-10-13T10:38:44.101Z,17.00
2022-10-13T10:40:52.188Z,18.30
2022-10-13T10:43:08.905Z,17.50
2022-10-13T10:45:25.542Z,14.63
2022-10-13T10:47:36.249Z,17.27
2022-10-13T10:49:39.497Z,20.50
2022-10-13T10:51:41.406Z,19.65
2022-10-13T10:54:07.430Z,18.48
2022-10-13T10:56:19.724Z,14.57
2022-10-13T10:58:39.705Z,17.10
2022-10-13T11:00:52.109Z,16.90
2022-10-13T11:03:14.338Z,15.40
2022-10-13T11:05:17.440Z,13.75
2022-10-13T11:07:41.759Z,15.02
2022-10-13T11:09:43.245Z,12.95
2022-10-13T11:11:44.862Z,14.45
2022-10-13T11:13:53.004Z,16.60
2022-10-13T11:15:55.763Z,16.20
2022-10-13T11:17:57.706Z,15.73
2022-10-13T11:20:00.424Z,17.30
2022-10-13T11:22:02.058Z,15.60
2022-10-13T11:24:25.043Z,13.70
2022-10-13T11:26:31.326Z,14.80
2022-10-13T11:28:42.313Z,16.42
2022-10-13T11:30:51.819Z,17.70
2022-10-13T11:32:56.326Z,17.52
2022-10-13T11:35:02.926Z,15.80
2022-10-13T11:37:17.288Z,13.07
2022-10-13T11:39:47.669Z,16.05
2022-10-13T11:42:09.695Z,12.15
2022-10-13T11:44:37.938Z,15.07
2022-10-13T11:47:17.096Z,14.27
2022-10-13T11:49:45.462Z,16.05
2022-10-13T11:52:04.280Z,13.15
2022-10-13T11:54:35.129Z,13.98
2022-10-13T11:56:48.253Z,16.17
2022-10-13T11:58:50.402Z,14.88
2022-10-13T12:01:04.476Z,13.10
2022-10-13T12:03:06.045Z,14.73
2022-10-13T12:05:25.312Z,14.07
2022-10-13T12:07:32.520Z,14.57
2022-10-13T12:09:55.100Z,15.57
2022-10-13T12:12:12.618Z,14.23
2022-10-13T12:14:31.135Z,12.77
2022-10-13T12:16:35.791Z,14.07
2022-10-13T12:18:40.103Z,12.50
2022-10-13T12:20:41.933Z,15.98
2022-10-13T12:22:51.579Z,13.82
2022-10-13T12:25:01.648Z,14.43
2022-10-13T12:27:12.154Z,17.10
2022-10-13T12:29:15.051Z,18.38
2022-10-13T12:31:20.643Z,16.15
2022-10-13T12:33:35.325Z,15.05
2022-10-13T12:35:36.956Z,15.90
2022-10-13T12:37:38.675Z,12.82
2022-10-13T12:39:41.034Z,14.10
2022-10-13T12:41:45.137Z,12.88
2022-10-13T12:43:46.813Z,14.38
2022-10-13T12:45:48.450Z,12.88
2022-10-13T12:47:52.413Z,12.63
2022-10-13T12:50:29.228Z,12.15
2022-10-13T12:52:34.518Z,12.00
2022-10-13T12:54:47.525Z,13.02
2022-10-13T12:56:55.289Z,11.43
2022-10-13T12:58:59.523Z,13.45
2022-10-13T13:01:21.318Z,13.45
2022-10-13T13:03:27.482Z,12.98
2022-10-13T13:05:49.241Z,15.23
2022-10-13T13:07:53.507Z,15.90
2022-10-13T13:10:02.888Z,12.43
2022-10-13T13:12:08.403Z,13.20
2022-10-13T13:14:38.876Z,11.15
2022-10-13T13:16:40.581Z,11.68
2022-10-13T13:18:44.182Z,10.60
2022-10-13T13:20:45.761Z,10.75
2022-10-13T13:22:47.677Z,10.15
2022-10-13T13:24:53.116Z,10.13
2022-10-13T13:26:54.982Z,12.60
2022-10-13T13:28:57.195Z,13.50
2022-10-13T13:30:59.710Z,11.85
2022-10-13T13:33:01.748Z,10.60
2022-10-13T13:35:04.511Z,11.55
2022-10-13T13:37:09.407Z,12.82
2022-10-13T13:39:15.789Z,10.40
2022-10-13T13:41:18.184Z,11.93
2022-10-13T13:43:19.708Z,10.75
2022-10-13T13:45:24.916Z,11.07
2022-10-13T13:47:28.952Z,10.20
2022-10-13T13:49:30.593Z,9.75
2022-10-13T13:51:32.457Z,11.30
2022-10-13T13:53:34.027Z,10.20
2022-10-13T13:55:35.838Z,11.80
2022-10-13T13:57:38.260Z,10.13
2022-10-13T13:59:40.881Z,11.43
2022-10-13T14:01:43.012Z,11.57
2022-10-13T14:03:45.185Z,10.40
2022-10-13T14:05:50.315Z,10.05
2022-10-13T14:07:58.536Z,10.45
2022-10-13T14:10:02.104Z,10.73
2022-10-13T14:12:05.012Z,8.90
2022-10-13T14:14:06.585Z,12.27
2022-10-13T14:16:15.479Z,11.27
2022-10-13T14:18:17.143Z,11.30
2022-10-13T14:20:19.511Z,10.77
2022-10-13T14:22:22.432Z,11.45
2022-10-13T14:24:24.887Z,13.60
2022-10-13T14:26:26.719Z,11.80
2022-10-13T14:28:28.358Z,10.38
2022-10-13T14:30:29.978Z,13.07
2022-10-13T14:32:31.574Z,12.75
2022-10-13T14:34:33.580Z,10.68
2022-10-13T14:36:35.347Z,9.50
2022-10-13T14:38:37.001Z,10.15
2022-10-13T14:40:45.006Z,9.32
2022-10-13T14:42:46.574Z,12.32
2022-10-13T14:44:50.017Z,12.73
2022-10-13T14:46:51.553Z,11.68
2022-10-13T14:48:55.537Z,10.27
2022-10-13T14:50:59.983Z,10.88
2022-10-13T14:53:03.394Z,15.45
2022-10-13T14:55:08.003Z,11.10
2022-10-13T14:57:16.059Z,10.25
2022-10-13T14:59:18.563Z,9.32
2022-10-13T15:01:24.609Z,10.77
2022-10-13T15:03:27.741Z,12.15
2022-10-13T15:05:29.639Z,11.35
2022-10-13T15:07:31.376Z,10.85
2022-10-13T15:09:45.217Z,10.10
2022-10-13T15:11:54.656Z,10.70
2022-10-13T15:13:57.022Z,10.40
2022-10-13T15:16:02.524Z,12.60
2022-10-13T15:18:04.238Z,11.55
2022-10-13T15:20:07.852Z,11.13
2022-10-13T15:22:09.543Z,11.80
2022-10-13T15:24:12.023Z,9.10
2022-10-13T15:26:19.975Z,12.48
2022-10-13T15:28:25.208Z,13.13
2022-10-13T15:30:26.857Z,9.73
2022-10-13T15:32:28.517Z,9.85
2022-10-13T15:34:35.442Z,10.50
2022-10-13T15:36:37.093Z,10.52
2022-10-13T15:38:38.760Z,8.98
2022-10-13T15:40:41.384Z,9.07
2022-10-13T15:42:45.651Z,10.43
2022-10-13T15:47:16.320Z,7.68
2022-10-13T15:49:18.979Z,12.43
2022-10-13T15:51:24.027Z,10.00
2022-10-13T15:53:26.355Z,10.73
2022-10-13T15:55:28.706Z,12.57
2022-10-13T15:57:31.496Z,8.88
2022-10-13T15:59:33.381Z,12.00
2022-10-13T16:01:35.084Z,8.60
2022-10-13T16:03:37.787Z,10.63
2022-10-13T16:05:44.665Z,11.00
2022-10-13T16:07:46.425Z,9.73
2022-10-13T16:09:48.099Z,11.25
2022-10-13T16:11:50.864Z,11.95
2022-10-13T16:13:52.508Z,10.05
2022-10-13T16:16:01.195Z,10.13
2022-10-13T16:18:03.411Z,12.00
2022-10-13T16:20:06.635Z,12.05
2022-10-13T16:22:08.914Z,12.55
2022-10-13T16:24:10.676Z,11.25
2022-10-13T16:26:12.521Z,11.60
2022-10-13T16:28:15.004Z,10.93
2022-10-13T16:30:16.840Z,9.13
2022-10-13T16:32:18.676Z,9.70
2022-10-13T16:34:20.891Z,9.75
2022-10-13T16:36:23.793Z,11.45
2022-10-13T16:38:26.617Z,11.60
2022-10-13T16:40:28.301Z,10.35
2022-10-13T16:42:29.959Z,10.13
2022-10-13T16:44:32.224Z,11.48
2022-10-13T16:46:34.481Z,11.05
2022-10-13T16:48:36.394Z,9.95
2022-10-13T16:50:38.215Z,9.75
2022-10-13T16:52:39.854Z,10.50
2022-10-13T16:54:41.684Z,10.60
2022-10-13T16:56:43.571Z,10.55
2022-10-13T16:58:45.301Z,10.73
2022-10-13T17:00:47.093Z,9.93
2022-10-13T17:02:49.020Z,16.75
2022-10-13T17:04:50.731Z,10.98
2022-10-13T17:06:52.440Z,14.68
2022-10-13T17:08:55.254Z,18.75
2022-10-13T17:10:58.453Z,21.52
2022-10-13T17:13:00.477Z,20.73
2022-10-13T17:15:02.434Z,17.67
2022-10-13T17:17:04.295Z,16.77
2022-10-13T17:19:12.314Z,18.85
2022-10-13T17:21:16.488Z,15.90
2022-10-13T17:23:20.861Z,17.27
2022-10-13T17:25:23.364Z,17.10
2022-10-13T17:27:25.515Z,15.57
2022-10-13T17:29:27.475Z,15.90
2022-10-13T17:31:30.924Z,16.23
2022-10-13T17:33:34.887Z,15.93
2022-10-13T17:35:36.590Z,13.07
2022-10-13T17:37:38.220Z,13.48
2022-10-13T17:39:39.916Z,12.93
2022-10-13T17:41:41.682Z,11.63
2022-10-13T17:43:44.244Z,12.60
2022-10-13T17:45:48.868Z,12.80
2022-10-13T17:47:52.368Z,13.55
2022-10-13T17:49:56.633Z,12.98
2022-10-13T17:51:58.861Z,12.95
2022-10-13T17:54:03.891Z,14.50
2022-10-13T17:56:10.880Z,14.77
2022-10-13T17:58:15.308Z,15.30
2022-10-13T18:00:17.222Z,15.32
2022-10-13T18:02:21.639Z,18.05
2022-10-13T18:04:23.722Z,15.90
2022-10-13T18:06:25.853Z,18.27
2022-10-13T18:08:27.587Z,16.75
2022-10-13T18:10:33.871Z,16.02
2022-10-13T18:12:47.150Z,18.63
2022-10-13T18:14:48.832Z,15.80
2022-10-13T18:16:51.791Z,15.57
2022-10-13T18:18:54.240Z,15.70
2022-10-13T18:20:56.109Z,14.65
2022-10-13T18:22:58.852Z,16.33
2022-10-13T18:25:00.499Z,13.82
2022-10-13T18:27:02.133Z,15.57
2022-10-13T18:29:05.884Z,17.05
2022-10-13T18:31:11.618Z,15.75
2022-10-13T18:33:13.239Z,14.85
2022-10-13T18:35:16.929Z,14.35
2022-10-13T18:37:19.138Z,13.38
2022-10-13T18:39:24.949Z,15.63
2022-10-13T18:41:26.772Z,12.10
2022-10-13T18:43:30.460Z,11.82
2022-10-13T18:45:35.408Z,13.75
2022-10-13T18:47:37.157Z,13.35
2022-10-13T18:49:39.381Z,12.45
2022-10-13T18:51:41.396Z,12.07
2022-10-13T18:53:45.150Z,13.50
2022-10-13T18:55:47.112Z,9.65
2022-10-13T18:57:48.751Z,10.30
2022-10-13T18:59:50.389Z,13.73
2022-10-13T19:01:53.581Z,11.73
2022-10-13T19:03:57.215Z,11.35
2022-10-13T19:05:59.095Z,12.85
2022-10-13T19:08:00.738Z,13.88
2022-10-13T19:10:02.522Z,12.27
2022-10-13T19:12:04.605Z,12.68
2022-10-13T19:14:08.951Z,10.90
2022-10-13T19:16:13.732Z,10.85
2022-10-13T19:18:15.687Z,10.55
2022-10-13T19:20:21.017Z,10.68
2022-10-13T19:22:26.821Z,10.93
2022-10-13T19:24:28.576Z,12.85
2022-10-13T19:26:38.297Z,10.60
2022-10-13T19:28:47.744Z,12.15
2022-10-13T19:30:50.377Z,11.55
2022-10-13T19:33:00.323Z,13.10
2022-10-13T19:35:01.887Z,12.25
2022-10-13T19:37:05.180Z,14.45
2022-10-13T19:39:22.242Z,10.75
2022-10-13T19:41:24.857Z,11.93
2022-10-13T19:43:26.805Z,11.82
2022-10-13T19:45:28.396Z,13.90
2022-10-13T19:47:30.179Z,10.60
2022-10-13T19:49:31.861Z,10.63
2022-10-13T19:51:34.065Z,11.93
2022-10-13T19:53:36.544Z,12.07
2022-10-13T19:55:40.380Z,11.68
2022-10-13T19:57:42.125Z,9.77
2022-10-13T19:59:47.787Z,12.23
2022-10-13T20:01:49.631Z,12.88
2022-10-13T20:03:51.359Z,12.10
2022-10-13T20:05:52.917Z,11.75
2022-10-13T20:07:55.253Z,14.88
2022-10-13T20:09:56.810Z,13.60
2022-10-13T20:11:58.324Z,13.48
2022-10-13T20:14:02.660Z,14.52
2022-10-13T20:16:09.179Z,13.57
2022-10-13T20:18:13.312Z,10.75
2022-10-13T20:20:22.166Z,10.60
2022-10-13T20:22:24.757Z,13.57
2022-10-13T20:24:26.478Z,9.52
2022-10-13T20:26:28.393Z,12.88
2022-10-13T20:28:30.446Z,9.75
2022-10-13T20:30:32.819Z,12.23
2022-10-13T20:32:34.428Z,11.15
2022-10-13T20:34:35.968Z,11.75
2022-10-13T20:36:39.096Z,13.88
2022-10-13T20:38:41.919Z,10.95
2022-10-13T20:40:44.142Z,11.13
2022-10-13T20:42:51.805Z,13.38
2022-10-13T20:44:55.229Z,12.35
2022-10-13T20:46:56.782Z,12.50
2022-10-13T20:49:16.822Z,13.25
2022-10-13T20:51:21.621Z,11.13
2022-10-13T20:53:23.436Z,11.43
2022-10-13T20:55:27.063Z,10.57
2022-10-13T20:57:28.670Z,11.18
2022-10-13T20:59:30.139Z,10.30
2022-10-13T21:01:32.771Z,12.95
2022-10-13T21:03:34.469Z,13.13
2022-10-13T21:05:39.346Z,11.38
2022-10-13T21:07:42.138Z,10.88
2022-10-13T21:09:43.872Z,12.13
2022-10-13T21:11:45.528Z,13.07
2022-10-13T21:13:48.089Z,12.52
2022-10-13T21:15:49.709Z,13.05
2022-10-13T21:17:54.470Z,11.43
2022-10-13T21:19:56.060Z,14.40
2022-10-13T21:21:57.695Z,10.65
2022-10-13T21:24:01.530Z,9.75
2022-10-13T21:26:05.471Z,10.80
2022-10-13T21:28:07.227Z,11.48
2022-10-13T21:30:09.789Z,10.32
2022-10-13T21:32:11.458Z,12.00
2022-10-13T21:34:14.980Z,11.90
2022-10-13T21:36:20.272Z,10.65
2022-10-13T21:38:22.252Z,10.40
2022-10-13T21:40:23.890Z,12.65
2022-10-13T21:42:25.582Z,11.95
2022-10-13T21:44:31.057Z,13.98
2022-10-13T21:46:35.094Z,14.68
2022-10-13T21:48:37.254Z,27.83
2022-10-13T21:50:38.765Z,50.08
2022-10-13T21:52:42.579Z,47.67
2022-10-13T21:54:44.258Z,41.63
2022-10-13T21:56:49.015Z,32.60
2022-10-13T21:58:50.702Z,25.95
2022-10-13T22:00:52.405Z,23.98
2022-10-13T22:02:54.204Z,18.95
2022-10-13T22:04:56.838Z,17.83
2022-10-13T22:06:58.491Z,17.70
2022-10-13T22:09:07.211Z,15.43
2022-10-13T22:11:10.983Z,15.07
2022-10-13T22:13:12.740Z,15.38
2022-10-13T22:15:14.406Z,11.80
2022-10-13T22:17:16.239Z,12.70
2022-10-13T22:19:19.707Z,12.80
2022-10-13T22:21:23.958Z,12.43
2022-10-13T22:23:25.810Z,11.25
2022-10-13T22:25:27.534Z,13.95
2022-10-13T22:27:29.059Z,15.63
2022-10-13T22:29:30.791Z,15.43
2022-10-13T22:31:33.342Z,16.55
2022-10-13T22:33:46.400Z,15.73
2022-10-13T22:35:49.178Z,18.13
2022-10-13T22:37:50.702Z,13.52
2022-10-13T22:39:52.328Z,16.15
2022-10-13T22:41:53.857Z,15.95
2022-10-13T22:43:57.351Z,11.95
2022-10-13T22:45:58.929Z,12.43
2022-10-13T22:48:02.055Z,13.00
2022-10-13T22:50:03.818Z,14.32
2022-10-13T22:52:05.389Z,13.30
2022-10-13T22:54:07.039Z,11.82
2022-10-13T22:56:14.253Z,13.38
2022-10-13T22:58:15.898Z,14.73
2022-10-13T23:00:17.883Z,12.75
2022-10-13T23:02:20.831Z,11.30
2022-10-13T23:04:22.616Z,12.32
2022-10-13T23:06:26.881Z,10.80
2022-10-13T23:08:28.575Z,13.32
2022-10-13T23:10:30.176Z,10.52
2022-10-13T23:12:31.889Z,12.27
2022-10-13T23:14:33.587Z,11.20
2022-10-13T23:16:35.055Z,12.15
2022-10-13T23:18:39.732Z,13.70
2022-10-13T23:20:44.172Z,10.65
2022-10-13T23:22:48.302Z,12.27
2022-10-13T23:24:50.033Z,10.57
2022-10-13T23:27:00.362Z,10.85
2022-10-13T23:29:03.639Z,12.95
2022-10-13T23:31:08.552Z,12.48
2022-10-13T23:33:10.071Z,12.00
2022-10-13T23:35:12.901Z,12.85
2022-10-13T23:37:14.461Z,12.45
2022-10-13T23:39:19.721Z,9.85
2022-10-13T23:41:21.429Z,12.65
2022-10-13T23:43:23.360Z,10.48
2022-10-13T23:45:25.031Z,11.15
2022-10-13T23:47:26.639Z,12.10
2022-10-13T23:49:28.429Z,9.57
2022-10-13T23:51:30.093Z,12.05
2022-10-13T23:53:37.379Z,10.15
2022-10-13T23:55:40.026Z,9.70
2022-10-13T23:57:41.646Z,13.52
2022-10-13T23:59:46.293Z,12.02
